Ames, Oklahoma
Current Conditions -  °F | °C
As of 12:57 PM on Tuesday 27 Jan 2015 (Local Time) from KEND Reporting Station
Few Clouds Few Clouds  
Wind Chill: 70°   Ceiling: Unl
Heat Index: 70°   Visibility: 10mi
Dew Point: 36°   Wind: 12mph
Humidity: 28%   Direction: 190°S
Pressure: 30.1"   Gusts: NA
Location:  36.25°N, 98.19°W
Report Text: KEND 271857Z 19010KT 10SM FEW250 21/02 A3010 RMK SLP193
Loading
Personal Weather Stations






























Interactive Weather Map New forecast layout! Learn more

10-Day Weather Forecast

Advertisements
Track Severe Weather on mobile